createdAt,value
2022-11-30T00:00:27.903Z,7.35
2022-11-30T00:01:27.886Z,7.35
2022-11-30T00:02:27.975Z,7.37
2022-11-30T00:03:27.946Z,7.35
2022-11-30T00:04:27.875Z,7.35
2022-11-30T00:05:27.845Z,7.35
2022-11-30T00:06:27.863Z,7.37
2022-11-30T00:07:27.887Z,7.37
2022-11-30T00:08:27.808Z,7.37
2022-11-30T00:09:27.847Z,7.37
2022-11-30T00:10:27.792Z,7.39
2022-11-30T00:11:27.798Z,7.35
2022-11-30T00:12:27.753Z,7.37
2022-11-30T00:13:27.768Z,7.39
2022-11-30T00:14:27.739Z,7.37
2022-11-30T00:15:27.753Z,7.40
2022-11-30T00:16:27.801Z,7.40
2022-11-30T00:17:27.722Z,7.42
2022-11-30T00:18:27.702Z,7.40
2022-11-30T00:19:27.683Z,7.40
2022-11-30T00:20:27.673Z,7.40
2022-11-30T00:21:27.685Z,7.39
2022-11-30T00:22:27.673Z,7.39
2022-11-30T00:23:27.644Z,7.35
2022-11-30T00:24:27.635Z,7.35
2022-11-30T00:25:27.623Z,7.35
2022-11-30T00:26:27.610Z,7.34
2022-11-30T00:27:27.608Z,7.32
2022-11-30T00:28:27.598Z,7.34
2022-11-30T00:29:27.590Z,7.34
2022-11-30T00:30:27.632Z,7.31
2022-11-30T00:31:27.563Z,7.31
2022-11-30T00:32:27.550Z,7.30
2022-11-30T00:33:27.552Z,7.31
2022-11-30T00:34:27.526Z,7.31
2022-11-30T00:35:27.504Z,7.30
2022-11-30T00:36:27.516Z,7.28
2022-11-30T00:37:27.494Z,7.27
2022-11-30T00:38:27.489Z,7.28
2022-11-30T00:39:31.030Z,7.30
2022-11-30T00:40:27.462Z,7.30
2022-11-30T00:41:27.436Z,7.31
2022-11-30T00:42:27.433Z,7.31
2022-11-30T00:43:27.432Z,7.32
2022-11-30T00:44:27.407Z,7.34
2022-11-30T00:45:27.419Z,7.32
2022-11-30T00:46:27.445Z,7.31
2022-11-30T00:47:27.374Z,7.28
2022-11-30T00:48:27.370Z,7.25
2022-11-30T00:49:27.370Z,7.24
2022-11-30T00:50:27.343Z,7.27
2022-11-30T00:51:27.352Z,7.27
2022-11-30T00:52:27.327Z,7.27
2022-11-30T00:53:27.306Z,7.27
2022-11-30T00:54:27.300Z,7.28
2022-11-30T00:55:28.520Z,7.27
2022-11-30T00:56:27.281Z,7.27
2022-11-30T00:57:27.302Z,7.28
2022-11-30T00:58:27.263Z,7.28
2022-11-30T00:59:27.280Z,7.30
2022-11-30T01:00:27.230Z,7.30
2022-11-30T01:01:27.308Z,7.30
2022-11-30T01:02:27.273Z,7.30
2022-11-30T01:03:27.194Z,7.30
2022-11-30T01:04:27.210Z,7.32
2022-11-30T01:05:27.185Z,7.32
2022-11-30T01:06:27.162Z,7.37
2022-11-30T01:07:27.220Z,7.39
2022-11-30T01:08:27.141Z,7.39
2022-11-30T01:09:27.133Z,7.39
2022-11-30T01:10:27.126Z,7.37
2022-11-30T01:11:27.125Z,7.39
2022-11-30T01:12:27.104Z,7.39
2022-11-30T01:13:27.088Z,7.39
2022-11-30T01:14:27.073Z,7.39
2022-11-30T01:15:27.064Z,7.40
2022-11-30T01:16:27.075Z,7.40
2022-11-30T01:17:27.050Z,7.40
2022-11-30T01:18:27.036Z,7.40
2022-11-30T01:19:27.015Z,7.42
2022-11-30T01:20:27.015Z,7.42
2022-11-30T01:21:27.017Z,7.40
2022-11-30T01:22:27.003Z,7.42
2022-11-30T01:23:26.982Z,7.43
2022-11-30T01:24:26.971Z,7.43
2022-11-30T01:25:26.944Z,7.40
2022-11-30T01:26:26.957Z,7.42
2022-11-30T01:27:26.920Z,7.43
2022-11-30T01:28:26.921Z,7.43
2022-11-30T01:29:26.921Z,7.43
2022-11-30T01:30:26.895Z,7.43
2022-11-30T01:31:26.889Z,7.45
2022-11-30T01:32:26.867Z,7.45
2022-11-30T01:33:26.866Z,7.45
2022-11-30T01:34:26.860Z,7.43
2022-11-30T01:35:26.847Z,7.43
2022-11-30T01:36:26.841Z,7.40
2022-11-30T01:37:26.820Z,7.40
2022-11-30T01:38:26.804Z,7.40
2022-11-30T01:39:26.795Z,7.40
2022-11-30T01:40:26.776Z,7.43
2022-11-30T01:41:26.780Z,7.42
2022-11-30T01:42:26.770Z,7.43
2022-11-30T01:43:26.759Z,7.45
2022-11-30T01:44:26.745Z,7.45
2022-11-30T01:45:26.762Z,7.43
2022-11-30T01:46:26.755Z,7.43
2022-11-30T01:47:26.724Z,7.43
2022-11-30T01:48:26.706Z,7.43
2022-11-30T01:49:26.688Z,7.45
2022-11-30T01:50:26.685Z,7.43
2022-11-30T01:51:26.671Z,7.42
2022-11-30T01:52:26.657Z,7.42
2022-11-30T01:53:26.644Z,7.40
2022-11-30T01:54:26.646Z,7.39
2022-11-30T01:55:26.630Z,7.40
2022-11-30T01:56:26.618Z,7.39
2022-11-30T01:57:26.609Z,7.39
2022-11-30T01:58:26.607Z,7.35
2022-11-30T01:59:26.569Z,7.35
2022-11-30T02:00:26.566Z,7.34
2022-11-30T02:01:26.618Z,7.35
2022-11-30T02:02:26.664Z,7.37
2022-11-30T02:03:26.535Z,7.37
2022-11-30T02:04:26.537Z,7.40
2022-11-30T02:05:26.509Z,7.42
2022-11-30T02:06:26.497Z,7.40
2022-11-30T02:07:26.622Z,7.43
2022-11-30T02:08:26.612Z,7.45
2022-11-30T02:09:26.473Z,7.43
2022-11-30T02:10:26.461Z,7.43
2022-11-30T02:11:26.460Z,7.43
2022-11-30T02:12:26.430Z,7.45
2022-11-30T02:13:26.413Z,7.46
2022-11-30T02:14:26.431Z,7.45
2022-11-30T02:15:26.478Z,7.43
2022-11-30T02:16:26.385Z,7.45
2022-11-30T02:17:26.392Z,7.45
2022-11-30T02:18:26.367Z,7.43
2022-11-30T02:19:26.352Z,7.43
2022-11-30T02:20:26.347Z,7.43
2022-11-30T02:21:26.327Z,7.45
2022-11-30T02:22:26.313Z,7.42
2022-11-30T02:23:26.316Z,7.43
2022-11-30T02:24:26.286Z,7.42
2022-11-30T02:25:26.293Z,7.40
2022-11-30T02:26:26.262Z,7.42
2022-11-30T02:27:26.262Z,7.42
2022-11-30T02:28:26.275Z,7.43
2022-11-30T02:29:26.236Z,7.45
2022-11-30T02:30:26.244Z,7.45
2022-11-30T02:31:26.263Z,7.48
2022-11-30T02:32:26.205Z,7.46
2022-11-30T02:33:26.213Z,7.46
2022-11-30T02:34:26.192Z,7.46
2022-11-30T02:35:26.188Z,7.43
2022-11-30T02:36:26.174Z,7.39
2022-11-30T02:37:26.146Z,7.37
2022-11-30T02:38:26.143Z,7.34
2022-11-30T02:39:26.129Z,7.35
2022-11-30T02:40:26.150Z,7.37
2022-11-30T02:41:26.118Z,7.39
2022-11-30T02:42:26.091Z,7.39
2022-11-30T02:43:26.104Z,7.39
2022-11-30T02:44:26.084Z,7.40
2022-11-30T02:45:26.070Z,7.39
2022-11-30T02:46:26.123Z,7.40
2022-11-30T02:47:26.027Z,7.40
2022-11-30T02:48:26.025Z,7.40
2022-11-30T02:49:26.017Z,7.37
2022-11-30T02:50:26.015Z,7.37
2022-11-30T02:51:26.012Z,7.39
2022-11-30T02:52:25.982Z,7.39
2022-11-30T02:53:25.968Z,7.40
2022-11-30T02:54:25.958Z,7.40
2022-11-30T02:55:25.954Z,7.37
2022-11-30T02:56:25.976Z,7.34
2022-11-30T02:57:25.939Z,7.32
2022-11-30T02:58:25.922Z,7.32
2022-11-30T02:59:25.898Z,7.34
2022-11-30T03:00:25.887Z,7.32
2022-11-30T03:01:25.942Z,7.32
2022-11-30T03:02:25.906Z,7.31
2022-11-30T03:03:25.866Z,7.32
2022-11-30T03:04:25.844Z,7.32
2022-11-30T03:05:25.837Z,7.34
2022-11-30T03:06:25.841Z,7.32
2022-11-30T03:07:25.904Z,7.34
2022-11-30T03:08:25.825Z,7.32
2022-11-30T03:09:25.786Z,7.34
2022-11-30T03:10:25.782Z,7.35
2022-11-30T03:11:25.764Z,7.34
2022-11-30T03:12:25.762Z,7.34
2022-11-30T03:13:25.769Z,7.35
2022-11-30T03:14:25.743Z,7.34
2022-11-30T03:15:25.743Z,7.32
2022-11-30T03:16:25.712Z,7.28
2022-11-30T03:17:25.723Z,7.21
2022-11-30T03:18:25.691Z,7.15
2022-11-30T03:19:25.688Z,7.16
2022-11-30T03:20:25.697Z,7.17
2022-11-30T03:21:25.653Z,7.20
2022-11-30T03:22:25.662Z,7.23
2022-11-30T03:23:25.670Z,7.20
2022-11-30T03:24:25.618Z,7.20
2022-11-30T03:25:25.606Z,7.23
2022-11-30T03:26:25.611Z,7.24
2022-11-30T03:27:25.591Z,7.25
2022-11-30T03:28:25.579Z,7.28
2022-11-30T03:29:25.585Z,7.31
2022-11-30T03:30:25.561Z,7.32
2022-11-30T03:31:25.640Z,7.32
2022-11-30T03:32:25.534Z,7.34
2022-11-30T03:33:25.533Z,7.34
2022-11-30T03:34:25.527Z,7.35
2022-11-30T03:35:25.530Z,7.32
2022-11-30T03:36:25.487Z,7.34
2022-11-30T03:37:25.483Z,7.34
2022-11-30T03:38:25.468Z,7.34
2022-11-30T03:39:25.454Z,7.32
2022-11-30T03:40:25.447Z,7.31
2022-11-30T03:41:25.463Z,7.30
2022-11-30T03:42:25.429Z,7.28
2022-11-30T03:43:25.460Z,7.31
2022-11-30T03:44:25.407Z,7.34
2022-11-30T03:45:25.380Z,7.35
2022-11-30T03:46:25.401Z,7.39
2022-11-30T03:47:25.401Z,7.39
2022-11-30T03:48:25.364Z,7.42
2022-11-30T03:49:25.339Z,7.42
2022-11-30T03:50:25.348Z,7.45
2022-11-30T03:51:25.326Z,7.46
2022-11-30T03:52:25.328Z,7.45
2022-11-30T03:53:25.303Z,7.48
2022-11-30T03:54:25.293Z,7.49
2022-11-30T03:55:25.277Z,7.48
2022-11-30T03:56:25.415Z,7.48
2022-11-30T03:57:25.251Z,7.48
2022-11-30T03:58:25.262Z,7.48
2022-11-30T03:59:25.227Z,7.48
2022-11-30T04:00:25.233Z,7.48
2022-11-30T04:01:25.360Z,7.49
2022-11-30T04:02:25.442Z,7.50
2022-11-30T04:03:25.233Z,7.50
2022-11-30T04:04:25.170Z,7.52
2022-11-30T04:05:25.181Z,7.50
2022-11-30T04:06:25.153Z,7.45
2022-11-30T04:07:25.196Z,7.39
2022-11-30T04:08:25.147Z,7.35
2022-11-30T04:09:25.151Z,7.28
2022-11-30T04:10:25.116Z,7.24
2022-11-30T04:11:25.127Z,7.21
2022-11-30T04:12:25.086Z,7.24
2022-11-30T04:13:25.100Z,7.27
2022-11-30T04:14:25.087Z,7.28
2022-11-30T04:15:25.065Z,7.23
2022-11-30T04:16:25.102Z,7.13
2022-11-30T04:17:25.027Z,7.10
2022-11-30T04:18:25.028Z,7.07
2022-11-30T04:19:25.004Z,7.06
2022-11-30T04:20:25.012Z,7.05
2022-11-30T04:21:24.988Z,7.05
2022-11-30T04:22:24.974Z,7.06
2022-11-30T04:23:24.958Z,7.06
2022-11-30T04:24:24.963Z,7.07
2022-11-30T04:25:24.936Z,7.09
2022-11-30T04:26:24.945Z,7.07
2022-11-30T04:27:24.912Z,7.03
2022-11-30T04:28:24.919Z,6.95
2022-11-30T04:29:24.897Z,6.95
2022-11-30T04:30:24.886Z,6.97
2022-11-30T04:31:24.951Z,6.97
2022-11-30T04:32:24.866Z,6.95
2022-11-30T04:33:24.860Z,6.98
2022-11-30T04:34:24.846Z,6.95
2022-11-30T04:35:24.833Z,6.97
2022-11-30T04:36:24.844Z,6.91
2022-11-30T04:37:24.819Z,6.89
2022-11-30T04:38:24.806Z,6.87
2022-11-30T04:39:24.819Z,6.85
2022-11-30T04:40:24.770Z,6.81
2022-11-30T04:41:24.769Z,6.76
2022-11-30T04:42:24.769Z,6.74
2022-11-30T04:43:24.758Z,6.73
2022-11-30T04:44:24.722Z,6.70
2022-11-30T04:45:24.722Z,6.64
2022-11-30T04:46:24.876Z,6.59
2022-11-30T04:47:24.725Z,6.58
2022-11-30T04:48:24.699Z,6.56
2022-11-30T04:49:24.672Z,6.55
2022-11-30T04:50:24.666Z,6.54
2022-11-30T04:51:24.647Z,6.54
2022-11-30T04:52:24.641Z,6.43
2022-11-30T04:53:24.652Z,6.41
2022-11-30T04:54:24.613Z,6.36
2022-11-30T04:55:24.608Z,6.34
2022-11-30T04:56:24.600Z,6.33
2022-11-30T04:57:24.607Z,6.33
2022-11-30T04:58:24.569Z,6.31
2022-11-30T04:59:24.585Z,6.30
2022-11-30T05:00:24.546Z,6.28
2022-11-30T05:01:24.602Z,6.25
2022-11-30T05:02:24.537Z,6.25
2022-11-30T05:03:24.507Z,6.27
2022-11-30T05:04:24.553Z,6.28
2022-11-30T05:05:24.519Z,6.31
2022-11-30T05:06:24.482Z,6.33
2022-11-30T05:07:24.501Z,6.27
2022-11-30T05:08:24.486Z,6.25
2022-11-30T05:09:24.445Z,6.30
2022-11-30T05:10:24.441Z,6.27
2022-11-30T05:11:24.413Z,6.28
2022-11-30T05:12:24.424Z,6.27
2022-11-30T05:13:24.405Z,6.27
2022-11-30T05:14:24.388Z,6.25
2022-11-30T05:15:24.391Z,6.30
2022-11-30T05:16:24.449Z,6.25
2022-11-30T05:17:24.405Z,6.25
2022-11-30T05:18:24.338Z,6.19
2022-11-30T05:19:24.324Z,6.18
2022-11-30T05:20:24.321Z,6.19
2022-11-30T05:21:24.341Z,6.18
2022-11-30T05:22:24.302Z,6.21
2022-11-30T05:23:24.319Z,6.17
2022-11-30T05:24:24.266Z,6.14
2022-11-30T05:25:24.264Z,6.17
2022-11-30T05:26:24.261Z,6.15
2022-11-30T05:27:24.247Z,6.18
2022-11-30T05:28:24.234Z,6.15
2022-11-30T05:29:24.223Z,6.18
2022-11-30T05:30:24.215Z,6.19
2022-11-30T05:31:24.309Z,6.25
2022-11-30T05:32:24.188Z,6.27
2022-11-30T05:33:24.169Z,6.28
2022-11-30T05:34:24.161Z,6.31
2022-11-30T05:35:24.157Z,6.33
2022-11-30T05:36:24.151Z,6.30
2022-11-30T05:37:24.146Z,6.25
2022-11-30T05:38:24.113Z,6.17
2022-11-30T05:39:24.123Z,6.17
2022-11-30T05:40:24.105Z,6.18
2022-11-30T05:41:24.093Z,6.21
2022-11-30T05:42:24.082Z,6.21
2022-11-30T05:43:24.101Z,6.22
2022-11-30T05:44:24.051Z,6.27
2022-11-30T05:45:24.077Z,6.22
2022-11-30T05:46:24.079Z,6.25
2022-11-30T05:47:24.023Z,6.28
2022-11-30T05:48:24.034Z,6.22
2022-11-30T05:49:24.013Z,6.25
2022-11-30T05:50:24.002Z,6.22
2022-11-30T05:51:23.980Z,6.27
2022-11-30T05:52:23.967Z,6.25
2022-11-30T05:53:23.978Z,6.27
2022-11-30T05:54:24.008Z,6.28
2022-11-30T05:55:23.926Z,6.28
2022-11-30T05:56:23.924Z,6.27
2022-11-30T05:57:23.925Z,6.27
2022-11-30T05:58:23.935Z,6.28
2022-11-30T05:59:23.888Z,6.28
2022-11-30T06:00:23.915Z,6.31
2022-11-30T06:01:23.869Z,6.31
2022-11-30T06:02:28.161Z,6.31
2022-11-30T06:03:23.997Z,6.30
2022-11-30T06:04:23.851Z,6.30
2022-11-30T06:05:23.824Z,6.36
2022-11-30T06:06:23.810Z,6.31
2022-11-30T06:07:23.856Z,6.33
2022-11-30T06:08:23.805Z,6.30
2022-11-30T06:09:23.782Z,6.22
2022-11-30T06:10:23.781Z,6.21
2022-11-30T06:11:23.754Z,6.17
2022-11-30T06:12:23.743Z,6.17
2022-11-30T06:13:28.744Z,6.18
2022-11-30T06:14:23.737Z,6.14
2022-11-30T06:15:23.729Z,6.14
2022-11-30T06:16:23.761Z,6.17
2022-11-30T06:17:23.718Z,6.14
2022-11-30T06:18:23.680Z,6.08
2022-11-30T06:19:23.664Z,6.08
2022-11-30T06:20:23.696Z,6.09
2022-11-30T06:21:24.933Z,6.11
2022-11-30T06:22:23.633Z,6.09
2022-11-30T06:23:23.611Z,6.09
2022-11-30T06:24:23.607Z,6.09
2022-11-30T06:25:23.595Z,6.11
2022-11-30T06:26:23.603Z,6.11
2022-11-30T06:27:23.616Z,6.11
2022-11-30T06:28:23.568Z,6.12
2022-11-30T06:29:23.554Z,6.12
2022-11-30T06:30:23.545Z,6.15
2022-11-30T06:31:23.606Z,6.15
2022-11-30T06:32:23.528Z,6.14
2022-11-30T06:33:23.520Z,6.12
2022-11-30T06:34:23.491Z,6.12
2022-11-30T06:35:23.492Z,6.14
2022-11-30T06:36:23.487Z,6.15
2022-11-30T06:37:23.460Z,6.14
2022-11-30T06:38:23.468Z,6.14
2022-11-30T06:39:50.012Z,6.15
2022-11-30T06:40:23.430Z,6.17
2022-11-30T06:41:23.418Z,6.18
2022-11-30T06:42:23.411Z,6.19
2022-11-30T06:43:23.408Z,6.19
2022-11-30T06:44:23.404Z,6.19
2022-11-30T06:45:23.389Z,6.19
2022-11-30T06:46:23.361Z,6.21
2022-11-30T06:47:23.338Z,6.21
2022-11-30T06:48:23.343Z,6.22
2022-11-30T06:49:23.357Z,6.22
2022-11-30T06:50:23.324Z,6.21
2022-11-30T06:51:23.298Z,6.19
2022-11-30T06:52:23.291Z,6.18
2022-11-30T06:53:23.279Z,6.15
2022-11-30T06:54:23.273Z,6.15
2022-11-30T06:55:23.301Z,6.17
2022-11-30T06:56:23.242Z,6.18
2022-11-30T06:57:23.390Z,6.17
2022-11-30T06:58:23.239Z,6.18
2022-11-30T06:59:23.240Z,6.18
2022-11-30T07:00:23.196Z,6.18
2022-11-30T07:01:23.267Z,6.18
2022-11-30T07:02:23.199Z,6.18
2022-11-30T07:03:23.164Z,6.17
2022-11-30T07:04:23.189Z,6.19
2022-11-30T07:05:23.152Z,6.19
2022-11-30T07:06:23.158Z,6.19
2022-11-30T07:07:23.151Z,6.18
2022-11-30T07:08:23.256Z,6.21
2022-11-30T07:09:23.107Z,6.21
2022-11-30T07:10:23.096Z,6.18
2022-11-30T07:11:23.103Z,6.19
2022-11-30T07:12:23.085Z,6.15
2022-11-30T07:13:23.067Z,6.17
2022-11-30T07:14:23.046Z,6.15
2022-11-30T07:15:23.030Z,6.19
2022-11-30T07:16:23.055Z,6.18
2022-11-30T07:17:23.033Z,6.18
2022-11-30T07:18:27.076Z,6.18
2022-11-30T07:19:22.992Z,6.15
2022-11-30T07:20:22.974Z,6.14
2022-11-30T07:21:22.972Z,6.15
2022-11-30T07:22:22.963Z,6.17
2022-11-30T07:23:22.973Z,6.19
2022-11-30T07:24:22.930Z,6.19
2022-11-30T07:25:22.933Z,6.22
2022-11-30T07:26:22.907Z,6.25
2022-11-30T07:27:22.898Z,6.21
2022-11-30T07:28:22.881Z,6.22
2022-11-30T07:29:22.900Z,6.22
2022-11-30T07:30:22.887Z,6.19
2022-11-30T07:31:22.936Z,6.21
2022-11-30T07:32:22.836Z,6.21
2022-11-30T07:33:22.834Z,6.21
2022-11-30T07:34:22.842Z,6.22
2022-11-30T07:35:22.827Z,6.25
2022-11-30T07:36:22.808Z,6.27
2022-11-30T07:37:22.798Z,6.27
2022-11-30T07:38:22.772Z,6.30
2022-11-30T07:39:22.778Z,6.28
2022-11-30T07:40:22.774Z,6.18
2022-11-30T07:41:22.762Z,6.17
2022-11-30T07:42:22.743Z,6.15
2022-11-30T07:43:22.736Z,6.14
2022-11-30T07:44:22.751Z,6.11
2022-11-30T07:45:22.703Z,6.11
2022-11-30T07:46:22.709Z,6.11
2022-11-30T07:47:22.673Z,6.14
2022-11-30T07:48:22.673Z,6.14
2022-11-30T07:49:22.767Z,6.15
2022-11-30T07:50:22.637Z,6.14
2022-11-30T07:51:22.623Z,6.15
2022-11-30T07:52:22.621Z,6.15
2022-11-30T07:53:22.643Z,6.15
2022-11-30T07:54:22.590Z,6.17
2022-11-30T07:55:22.606Z,6.18
2022-11-30T07:56:22.562Z,6.22
2022-11-30T07:57:22.566Z,6.27
2022-11-30T07:58:22.556Z,6.31
2022-11-30T07:59:22.580Z,6.37
2022-11-30T08:00:22.517Z,6.38
2022-11-30T08:01:22.731Z,6.37
2022-11-30T08:02:22.670Z,6.31
2022-11-30T08:03:22.545Z,6.33
2022-11-30T08:04:22.498Z,6.33
2022-11-30T08:05:22.482Z,6.27
2022-11-30T08:06:22.447Z,6.28
2022-11-30T08:07:22.498Z,6.33
2022-11-30T08:08:22.446Z,6.33
2022-11-30T08:09:22.436Z,6.34
2022-11-30T08:10:22.439Z,6.38
2022-11-30T08:11:22.425Z,6.38
2022-11-30T08:12:22.386Z,6.40
2022-11-30T08:13:22.413Z,6.43
2022-11-30T08:14:22.378Z,6.43
2022-11-30T08:15:26.107Z,6.43
2022-11-30T08:16:22.449Z,6.44
2022-11-30T08:17:22.377Z,6.44
2022-11-30T08:18:22.369Z,6.48
2022-11-30T08:19:22.323Z,6.46
2022-11-30T08:20:22.297Z,6.44
2022-11-30T08:21:22.294Z,6.40
2022-11-30T08:22:22.292Z,6.43
2022-11-30T08:23:22.317Z,6.44
2022-11-30T08:24:22.298Z,6.44
2022-11-30T08:25:22.254Z,6.46
2022-11-30T08:26:22.266Z,6.48
2022-11-30T08:27:22.255Z,6.46
2022-11-30T08:28:22.388Z,6.48
2022-11-30T08:29:22.225Z,6.46
2022-11-30T08:30:25.167Z,6.46
2022-11-30T08:31:22.368Z,6.44
2022-11-30T08:32:22.163Z,6.48
2022-11-30T08:33:22.181Z,6.51
2022-11-30T08:34:22.167Z,6.54
2022-11-30T08:35:22.124Z,6.48
2022-11-30T08:36:22.113Z,6.43
2022-11-30T08:37:22.109Z,6.43
2022-11-30T08:38:22.114Z,6.44
2022-11-30T08:39:22.095Z,6.51
2022-11-30T08:40:22.087Z,6.51
2022-11-30T08:41:22.056Z,6.51
2022-11-30T08:42:22.048Z,6.51
2022-11-30T08:43:22.049Z,6.51
2022-11-30T08:44:22.037Z,6.55
2022-11-30T08:45:22.040Z,6.52
2022-11-30T09:00:54.372Z,6.56
2022-11-30T09:00:59.181Z,6.58
2022-11-30T09:01:59.158Z,6.61
2022-11-30T09:02:59.202Z,6.59
2022-11-30T09:03:59.175Z,6.59
2022-11-30T09:04:59.162Z,6.56
2022-11-30T09:05:59.119Z,6.56
2022-11-30T09:06:59.552Z,6.56
2022-11-30T09:07:59.190Z,6.56
2022-11-30T09:08:59.074Z,6.61
2022-11-30T09:09:59.061Z,6.62
2022-11-30T09:10:59.068Z,6.64
2022-11-30T09:11:59.051Z,6.66
2022-11-30T09:12:59.076Z,6.61
2022-11-30T09:13:59.038Z,6.62
2022-11-30T09:14:59.432Z,6.66
2022-11-30T09:15:59.037Z,6.67
2022-11-30T09:16:58.989Z,6.69
2022-11-30T09:17:59.061Z,6.70
2022-11-30T09:18:59.000Z,6.70
2022-11-30T09:19:58.944Z,6.67
2022-11-30T09:20:58.941Z,6.61
2022-11-30T09:21:58.930Z,6.58
2022-11-30T09:22:58.906Z,6.55
2022-11-30T09:23:58.919Z,6.56
2022-11-30T09:24:59.042Z,6.59
2022-11-30T09:25:58.886Z,6.61
2022-11-30T09:26:59.166Z,6.62
2022-11-30T09:27:58.940Z,6.66
2022-11-30T09:28:58.890Z,6.62
2022-11-30T09:29:59.049Z,6.61
2022-11-30T09:30:58.900Z,6.62
2022-11-30T09:31:58.837Z,6.67
2022-11-30T09:32:58.796Z,6.70
2022-11-30T09:33:58.933Z,6.71
2022-11-30T09:34:58.787Z,6.76
2022-11-30T09:35:58.800Z,6.79
2022-11-30T09:36:58.761Z,6.81
2022-11-30T09:37:58.753Z,6.85
2022-11-30T09:38:58.783Z,6.88
2022-11-30T09:39:58.728Z,6.91
2022-11-30T09:40:58.778Z,6.91
2022-11-30T09:41:58.710Z,6.91
2022-11-30T09:42:58.696Z,6.92
2022-11-30T09:43:58.677Z,6.94
2022-11-30T09:44:58.666Z,6.89
2022-11-30T09:45:58.722Z,6.91
2022-11-30T09:46:58.690Z,6.85
2022-11-30T09:47:58.636Z,6.79
2022-11-30T09:48:58.623Z,6.79
2022-11-30T09:49:58.604Z,6.79
2022-11-30T09:50:58.589Z,6.77
2022-11-30T09:51:58.619Z,6.77
2022-11-30T09:52:58.580Z,6.77
2022-11-30T09:53:58.574Z,6.73
2022-11-30T09:54:58.550Z,6.76
2022-11-30T09:55:58.546Z,6.76
2022-11-30T09:56:58.531Z,6.76
2022-11-30T09:57:58.506Z,6.76
2022-11-30T09:58:58.531Z,6.79
2022-11-30T09:59:58.496Z,6.84
2022-11-30T10:01:01.252Z,6.84
2022-11-30T10:01:58.563Z,6.80
2022-11-30T10:02:58.578Z,6.80
2022-11-30T10:03:58.454Z,6.81
2022-11-30T10:04:58.453Z,6.77
2022-11-30T10:05:58.428Z,6.76
2022-11-30T10:06:58.419Z,6.73
2022-11-30T10:07:58.491Z,6.71
2022-11-30T10:08:58.392Z,6.73
2022-11-30T10:10:23.658Z,6.77
2022-11-30T10:10:58.370Z,6.77
2022-11-30T10:11:58.356Z,6.73
2022-11-30T10:12:58.343Z,6.76
2022-11-30T10:13:58.347Z,6.76
2022-11-30T10:15:00.262Z,6.77
2022-11-30T10:15:58.415Z,6.80
2022-11-30T10:16:58.361Z,6.81
2022-11-30T10:17:58.292Z,6.85
2022-11-30T10:18:58.302Z,6.84
2022-11-30T10:19:58.297Z,6.79
2022-11-30T10:20:58.262Z,6.71
2022-11-30T10:21:58.250Z,6.70
2022-11-30T10:22:58.258Z,6.71
2022-11-30T10:23:58.221Z,6.71
2022-11-30T10:24:58.204Z,6.71
2022-11-30T10:25:58.243Z,6.74
2022-11-30T10:26:58.188Z,6.74
2022-11-30T10:28:02.015Z,6.77
2022-11-30T10:28:58.276Z,6.79
2022-11-30T10:29:58.159Z,6.81
2022-11-30T10:30:58.193Z,6.79
2022-11-30T10:31:58.157Z,6.77
2022-11-30T10:32:58.126Z,6.79
2022-11-30T10:33:58.112Z,6.79
2022-11-30T10:34:58.102Z,6.79
2022-11-30T10:35:58.081Z,6.77
2022-11-30T10:36:58.105Z,6.77
2022-11-30T10:37:58.084Z,6.74
2022-11-30T10:38:58.066Z,6.77
2022-11-30T10:39:58.061Z,6.77
2022-11-30T10:40:58.042Z,6.80
2022-11-30T10:41:58.010Z,6.85
2022-11-30T10:42:58.027Z,6.89
2022-11-30T10:43:57.988Z,6.84
2022-11-30T10:44:57.982Z,6.84
2022-11-30T10:45:58.013Z,6.84
2022-11-30T10:46:58.057Z,6.81
2022-11-30T10:47:57.951Z,6.79
2022-11-30T10:48:57.965Z,6.80
2022-11-30T10:49:57.938Z,6.81
2022-11-30T10:50:57.913Z,6.81
2022-11-30T10:51:57.926Z,6.85
2022-11-30T10:52:57.918Z,6.80
2022-11-30T10:53:57.885Z,6.76
2022-11-30T10:55:03.756Z,6.79
2022-11-30T10:55:57.896Z,6.80
2022-11-30T10:56:57.862Z,6.79
2022-11-30T10:57:57.853Z,6.71
2022-11-30T10:58:57.825Z,6.74
2022-11-30T10:59:57.820Z,6.81
2022-11-30T11:00:57.820Z,6.87
2022-11-30T11:01:57.861Z,6.89
2022-11-30T11:02:57.859Z,6.95
2022-11-30T11:03:57.818Z,6.98
2022-11-30T11:04:57.782Z,6.97
2022-11-30T11:05:57.760Z,7.02
2022-11-30T11:06:57.803Z,6.94
2022-11-30T11:08:02.720Z,6.95
2022-11-30T11:08:57.742Z,6.94
2022-11-30T11:09:57.777Z,6.87
2022-11-30T11:10:57.690Z,6.91
2022-11-30T11:11:57.684Z,6.97
2022-11-30T11:12:57.702Z,6.95
2022-11-30T11:13:57.672Z,6.97
2022-11-30T11:14:57.646Z,6.95
2022-11-30T11:15:57.934Z,6.88
2022-11-30T11:16:57.718Z,6.84
2022-11-30T11:17:57.607Z,6.85
2022-11-30T11:18:57.661Z,6.85
2022-11-30T11:19:57.589Z,6.88
2022-11-30T11:21:02.591Z,6.89
2022-11-30T11:21:57.568Z,6.95
2022-11-30T11:22:57.557Z,6.97
2022-11-30T11:23:57.551Z,6.95
2022-11-30T11:24:57.538Z,6.84
2022-11-30T11:25:57.516Z,6.84
2022-11-30T11:26:57.506Z,6.80
2022-11-30T11:27:57.494Z,6.79
2022-11-30T11:28:57.496Z,6.77
2022-11-30T11:29:57.486Z,6.76
2022-11-30T11:30:57.602Z,6.77
2022-11-30T11:31:57.456Z,6.85
2022-11-30T11:32:57.439Z,6.89
2022-11-30T11:33:57.427Z,6.89
2022-11-30T11:34:57.445Z,6.85
2022-11-30T11:35:57.411Z,6.87
2022-11-30T11:36:57.410Z,6.85
2022-11-30T11:37:57.377Z,6.77
2022-11-30T11:38:57.369Z,6.77
2022-11-30T11:39:57.382Z,6.81
2022-11-30T11:40:57.446Z,6.76
2022-11-30T11:41:57.355Z,6.71
2022-11-30T11:42:57.327Z,6.70
2022-11-30T11:43:57.312Z,6.67
2022-11-30T11:44:57.308Z,6.70
2022-11-30T11:45:57.350Z,6.73
2022-11-30T11:46:57.300Z,6.76
2022-11-30T11:47:57.283Z,6.77
2022-11-30T11:48:57.269Z,6.74
2022-11-30T11:49:57.254Z,6.69
2022-11-30T11:51:06.820Z,6.69
2022-11-30T11:51:57.230Z,6.71
2022-11-30T11:52:57.220Z,6.71
2022-11-30T11:53:57.303Z,6.71
2022-11-30T11:54:57.213Z,6.69
2022-11-30T11:55:57.336Z,6.69
2022-11-30T11:56:57.165Z,6.69
2022-11-30T11:57:57.166Z,6.70
2022-11-30T11:58:57.149Z,6.73
2022-11-30T11:59:57.197Z,6.79
2022-11-30T12:01:16.763Z,6.84
2022-11-30T12:01:57.113Z,6.89
2022-11-30T12:02:57.158Z,6.92
2022-11-30T12:03:57.139Z,6.95
2022-11-30T12:04:57.072Z,6.99
2022-11-30T12:05:57.213Z,7.02
2022-11-30T12:06:57.070Z,7.03
2022-11-30T12:07:57.055Z,7.02
2022-11-30T12:08:57.027Z,7.03
2022-11-30T12:09:57.010Z,7.07
2022-11-30T12:10:57.036Z,7.10
2022-11-30T12:11:57.017Z,7.10
2022-11-30T12:12:56.980Z,7.10
2022-11-30T12:13:57.315Z,7.09
2022-11-30T12:14:56.972Z,7.06
2022-11-30T12:15:57.050Z,7.03
2022-11-30T12:16:56.938Z,7.05
2022-11-30T12:17:56.945Z,7.02
2022-11-30T12:18:56.949Z,6.99
2022-11-30T12:19:56.915Z,6.92
2022-11-30T12:20:56.894Z,6.91
2022-11-30T12:21:56.887Z,6.91
2022-11-30T12:22:56.894Z,6.91
2022-11-30T12:23:56.859Z,6.91
2022-11-30T12:25:00.097Z,6.88
2022-11-30T12:25:56.868Z,6.81
2022-11-30T12:26:56.827Z,6.80
2022-11-30T12:27:56.838Z,6.84
2022-11-30T12:28:56.800Z,6.84
2022-11-30T12:29:56.796Z,6.81
2022-11-30T12:30:56.902Z,6.87
2022-11-30T12:31:56.783Z,6.88
2022-11-30T12:32:56.769Z,6.81
2022-11-30T12:33:56.754Z,6.85
2022-11-30T12:34:56.735Z,6.88
2022-11-30T12:35:56.735Z,6.84
2022-11-30T12:36:56.723Z,6.85
2022-11-30T12:37:56.705Z,6.81
2022-11-30T12:38:56.697Z,6.81
2022-11-30T12:39:56.674Z,6.84
2022-11-30T12:40:56.673Z,6.85
2022-11-30T12:41:56.660Z,6.88
2022-11-30T12:42:56.657Z,6.89
2022-11-30T12:43:56.629Z,6.85
2022-11-30T12:44:56.647Z,6.77
2022-11-30T12:45:56.612Z,6.79
2022-11-30T12:46:56.649Z,6.84
2022-11-30T12:47:56.582Z,6.87
2022-11-30T12:48:56.632Z,6.88
2022-11-30T12:49:56.578Z,6.81
2022-11-30T12:50:56.560Z,6.79
2022-11-30T12:51:56.559Z,6.74
2022-11-30T12:52:56.545Z,6.73
2022-11-30T12:53:56.516Z,6.73
2022-11-30T12:54:56.516Z,6.73
2022-11-30T12:55:56.515Z,6.74
2022-11-30T12:56:56.486Z,6.79
2022-11-30T12:57:56.500Z,6.77
2022-11-30T12:58:56.476Z,6.74
2022-11-30T12:59:56.472Z,6.74
2022-11-30T13:00:56.526Z,6.73
2022-11-30T13:01:56.475Z,6.73
2022-11-30T13:02:56.428Z,6.70
2022-11-30T13:03:56.412Z,6.71
2022-11-30T13:04:58.661Z,6.71
2022-11-30T13:05:56.405Z,6.70
2022-11-30T13:06:56.389Z,6.73
2022-11-30T13:07:56.422Z,6.77
2022-11-30T13:08:56.359Z,6.74
2022-11-30T13:09:56.347Z,6.76
2022-11-30T13:10:56.333Z,6.77
2022-11-30T13:11:56.337Z,6.76
2022-11-30T13:12:56.302Z,6.74
2022-11-30T13:13:56.292Z,6.74
2022-11-30T13:14:56.279Z,6.67
2022-11-30T13:15:56.313Z,6.70
2022-11-30T13:16:56.258Z,6.74
2022-11-30T13:17:56.267Z,6.74
2022-11-30T13:18:56.238Z,6.79
2022-11-30T13:19:56.235Z,6.79
2022-11-30T13:20:56.214Z,6.80
2022-11-30T13:21:56.215Z,6.84
2022-11-30T13:22:56.191Z,6.88
2022-11-30T13:23:56.187Z,6.88
2022-11-30T13:24:56.169Z,6.87
2022-11-30T13:26:11.462Z,6.81
2022-11-30T13:26:56.145Z,6.77
2022-11-30T13:27:58.251Z,6.77
2022-11-30T13:28:56.146Z,6.79
2022-11-30T13:29:56.118Z,6.76
2022-11-30T13:30:56.288Z,6.77
2022-11-30T13:31:56.176Z,6.80